Pamlico — WX6900 — position and weather

sailwx.info

Track history (hours):
 
Tides and Currents Weather Stations Pressure Air Temp Water Temp Dewpoint Dewpoint Depression Visibility Wind Speed Wind Dir Waves Ship Positions

Pamlico

Owner: PCS Phosphate, AURORA, NC. More information available from US FCC via Universal Licensing System and Coast Guard Vessel Documentation Center.

Last reported at 2018-Feb-18 01:01 UTC. Time now 2018-Feb-19 00:01 UTC.
Position N 34°57' W 076°40'.

Length 30 m; draft 2 m.

Type: Tug. MMSI: 367361220.

Date/timePositionNaut miles runAvg speedWind from/ knotsBaromVisibWave heightAir tempDewpointWater temp
2018-Feb-18 01:01N 34°57' W 076°40'1 7.8
2018-Feb-18 00:55N 34°56' W 076°39'3 6.8
2018-Feb-18 00:30N 34°54' W 076°41'3 6.5
2018-Feb-18 00:01N 34°50' W 076°41'3 6.4
2018-Feb-17 23:31N 34°47' W 076°41'4 7.4
2018-Feb-17 23:01N 34°44' W 076°42'0 0.5
2018-Feb-17 22:30N 34°43' W 076°42'1 1.4
2018-Feb-17 22:01N 34°44' W 076°41'3 5.1
2018-Feb-17 21:30N 34°47' W 076°41'3 6.6
2018-Feb-17 21:01N 34°50' W 076°41'4 6.8
2018-Feb-17 20:29N 34°53' W 076°41'3 6.5
2018-Feb-17 20:01N 34°56' W 076°39'0 0.0
2018-Feb-17 07:18N 34°56' W 076°39'2 6.7
2018-Feb-17 06:59N 34°54' W 076°40'3 5.2
2018-Feb-17 06:30N 34°52' W 076°41'3 6.0
2018-Feb-17 06:01N 34°49' W 076°41'3 6.5
2018-Feb-17 05:30N 34°46' W 076°41'2 4.7
2018-Feb-17 05:01N 34°43' W 076°42'0 0.3
2018-Feb-17 04:30N 34°43' W 076°42'1 1.2
2018-Feb-17 04:01N 34°44' W 076°41'3 6.1
2018-Feb-17 03:31N 34°47' W 076°41'2 4.9
2018-Feb-17 03:00N 34°49' W 076°41'2 4.4
2018-Feb-17 02:31N 34°52' W 076°41'2 4.0
2018-Feb-17 02:01N 34°54' W 076°41'2 4.6
2018-Feb-17 01:30N 34°55' W 076°39'3 2.4
2018-Feb-17 00:23N 34°58' W 076°41'0 0.0
2018-Feb-16 09:40N 34°58' W 076°41'1 6.9
2018-Feb-16 09:30N 34°57' W 076°40'3 5.5
2018-Feb-16 09:00N 34°54' W 076°41'3 5.2
2018-Feb-16 08:31N 34°52' W 076°41'3 5.8
2018-Feb-16 08:01N 34°49' W 076°41'3 5.8
2018-Feb-16 07:30N 34°46' W 076°41'3 5.2
2018-Feb-16 07:00N 34°43' W 076°42'0 0.1
2018-Feb-16 06:30N 34°43' W 076°42'0 0.0
2018-Feb-16 06:00N 34°43' W 076°42'0 0.2
2018-Feb-16 05:30N 34°43' W 076°42'3 5.7
2018-Feb-16 05:01N 34°46' W 076°41'3 5.2
2018-Feb-16 04:31N 34°49' W 076°41'2 4.7
2018-Feb-16 04:00N 34°51' W 076°41'2 4.3
2018-Feb-16 03:29N 34°53' W 076°41'3 4.4
2018-Feb-16 02:55N 34°55' W 076°39'4 0.2
2018-Feb-15 04:08N 34°59' W 076°41'1 7.1
2018-Feb-15 03:59N 34°58' W 076°41'3 6.6
2018-Feb-15 03:30N 34°55' W 076°40'3 6.5
2018-Feb-15 03:01N 34°52' W 076°41'4 7.5
2018-Feb-15 02:31N 34°48' W 076°41'3 6.9
2018-Feb-15 02:01N 34°44' W 076°41'1 2.7
2018-Feb-15 01:31N 34°43' W 076°42'0 0.2
2018-Feb-15 01:00N 34°43' W 076°42'3 5.2
2018-Feb-15 00:31N 34°46' W 076°41'3 5.4
2018-Feb-15 00:01N 34°48' W 076°41'2 4.7
2018-Feb-14 23:31N 34°51' W 076°41'3 5.1
2018-Feb-14 23:00N 34°53' W 076°41'3 5.8
2018-Feb-14 22:30N 34°56' W 076°39'2 0.1
2018-Feb-14 02:20N 34°58' W 076°41'2 7.6
2018-Feb-14 02:00N 34°56' W 076°39'4 7.3
2018-Feb-14 01:31N 34°53' W 076°42'4 7.7
2018-Feb-14 01:00N 34°49' W 076°41'4 7.4
2018-Feb-14 00:30N 34°45' W 076°41'2 3.9
2018-Feb-14 00:01N 34°43' W 076°42'0 0.1
2018-Feb-13 23:31N 34°43' W 076°42'0 0.0
2018-Feb-13 23:00N 34°43' W 076°42'0 0.0
2018-Feb-13 22:31N 34°43' W 076°42'0 0.0
2018-Feb-13 22:00N 34°43' W 076°42'0 0.0
2018-Feb-13 21:31N 34°43' W 076°42'0 0.0
2018-Feb-13 21:01N 34°43' W 076°42'0 0.0
2018-Feb-13 20:31N 34°43' W 076°42'0 0.0
2018-Feb-13 20:01N 34°43' W 076°42'0 0.0
2018-Feb-13 19:31N 34°43' W 076°42'0 0.0
2018-Feb-13 19:00N 34°43' W 076°42'0 0.0
2018-Feb-13 18:31N 34°43' W 076°42'0 0.0
2018-Feb-13 18:01N 34°43' W 076°42'0 0.0
2018-Feb-13 17:31N 34°43' W 076°42'0 0.0
2018-Feb-13 17:01N 34°43' W 076°42'0 0.0
2018-Feb-13 16:31N 34°43' W 076°42'0 0.0
2018-Feb-13 16:01N 34°43' W 076°42'0 0.0
2018-Feb-13 15:31N 34°43' W 076°42'0 0.0
2018-Feb-13 15:01N 34°43' W 076°42'0 0.0
2018-Feb-13 14:31N 34°43' W 076°42'0 0.0
2018-Feb-13 14:01N 34°43' W 076°42'0 0.0
2018-Feb-13 13:31N 34°43' W 076°42'0 0.0
2018-Feb-13 13:01N 34°43' W 076°42'0 0.0
2018-Feb-13 12:30N 34°43' W 076°42'0 0.0
2018-Feb-13 12:01N 34°43' W 076°42'0 0.0
2018-Feb-13 11:31N 34°43' W 076°42'0 0.0
2018-Feb-13 11:00N 34°43' W 076°42'0 0.0
2018-Feb-13 10:30N 34°43' W 076°42'0 0.0
2018-Feb-13 10:00N 34°43' W 076°42'0 0.0
2018-Feb-13 09:31N 34°43' W 076°42'0 0.0
2018-Feb-13 09:00N 34°43' W 076°42'0 0.0
2018-Feb-13 08:31N 34°43' W 076°42'0 0.0
2018-Feb-13 08:00N 34°43' W 076°42'0 0.0
2018-Feb-13 07:31N 34°43' W 076°42'0 0.0
2018-Feb-13 07:01N 34°43' W 076°42'0 0.0
2018-Feb-13 06:31N 34°43' W 076°42'0 0.0
2018-Feb-13 06:01N 34°43' W 076°42'0 0.0
2018-Feb-13 05:30N 34°43' W 076°42'0 0.0
2018-Feb-13 05:01N 34°43' W 076°42'0 0.0
2018-Feb-13 04:31N 34°43' W 076°42'0 0.0
2018-Feb-13 04:01N 34°43' W 076°42'0 0.0
2018-Feb-13 03:31N 34°43' W 076°42'0 0.0
2018-Feb-13 03:00N 34°43' W 076°42'0 0.0
2018-Feb-13 02:31N 34°43' W 076°42'0 0.0
2018-Feb-13 02:00N 34°43' W 076°42'0 0.0
2018-Feb-13 01:30N 34°43' W 076°42'0 0.0
2018-Feb-13 01:00N 34°43' W 076°42'0 0.0
2018-Feb-13 00:31N 34°43' W 076°42'0 0.2
2018-Feb-13 00:01N 34°43' W 076°42'0 0.1
2018-Feb-12 23:30N 34°43' W 076°42'0 0.1
2018-Feb-12 23:01N 34°43' W 076°42'3 5.5
2018-Feb-12 22:30N 34°46' W 076°41'3 6.4
2018-Feb-12 22:01N 34°49' W 076°41'3 6.8
2018-Feb-12 21:31N 34°53' W 076°41'3 6.3
2018-Feb-12 21:00N 34°55' W 076°39'3 6.3
2018-Feb-12 20:30N 34°58' W 076°41'0 0.0
2018-Feb-11 23:35N 34°58' W 076°41'1 7.3
2018-Feb-11 23:27N 34°57' W 076°40'3 6.4
2018-Feb-11 23:00N 34°54' W 076°40'4 7.2
2018-Feb-11 22:30N 34°51' W 076°41'4 8.2
2018-Feb-11 22:00N 34°47' W 076°41'3 6.5
2018-Feb-11 21:30N 34°43' W 076°42'0 0.2
2018-Feb-11 21:01N 34°43' W 076°42'0 0.2
2018-Feb-11 20:31N 34°43' W 076°42'0 0.9
2018-Feb-11 20:01N 34°44' W 076°42'2 4.8
2018-Feb-11 19:31N 34°46' W 076°41'3 5.8
2018-Feb-11 19:00N 34°49' W 076°41'3 5.8
2018-Feb-11 18:31N 34°52' W 076°41'4 5.5
2018-Feb-11 17:51N 34°55' W 076°40'  
Track history (hours):
 
Tides and Currents Weather Stations Pressure Air Temp Water Temp Dewpoint Dewpoint Depression Visibility Wind Speed Wind Dir Waves Ship Positions

Pamlico

Owner: PCS Phosphate, AURORA, NC. More information available from US FCC via Universal Licensing System and Coast Guard Vessel Documentation Center.

Last reported at 2018-Feb-18 01:01 UTC. Time now 2018-Feb-19 00:01 UTC.
Position N 34°57' W 076°40'.

Length 30 m; draft 2 m.

Type: Tug. MMSI: 367361220.

Date/timePositionNaut miles runAvg speedWind from/ knotsBaromVisibWave heightAir tempDewpointWater temp
2018-Feb-18 01:01N 34°57' W 076°40'1 7.8
2018-Feb-18 00:55N 34°56' W 076°39'3 6.8
2018-Feb-18 00:30N 34°54' W 076°41'3 6.5
2018-Feb-18 00:01N 34°50' W 076°41'3 6.4
2018-Feb-17 23:31N 34°47' W 076°41'4 7.4
2018-Feb-17 23:01N 34°44' W 076°42'0 0.5
2018-Feb-17 22:30N 34°43' W 076°42'1 1.4
2018-Feb-17 22:01N 34°44' W 076°41'3 5.1
2018-Feb-17 21:30N 34°47' W 076°41'3 6.6
2018-Feb-17 21:01N 34°50' W 076°41'4 6.8
2018-Feb-17 20:29N 34°53' W 076°41'3 6.5
2018-Feb-17 20:01N 34°56' W 076°39'0 0.0
2018-Feb-17 07:18N 34°56' W 076°39'2 6.7
2018-Feb-17 06:59N 34°54' W 076°40'3 5.2
2018-Feb-17 06:30N 34°52' W 076°41'3 6.0
2018-Feb-17 06:01N 34°49' W 076°41'3 6.5
2018-Feb-17 05:30N 34°46' W 076°41'2 4.7
2018-Feb-17 05:01N 34°43' W 076°42'0 0.3
2018-Feb-17 04:30N 34°43' W 076°42'1 1.2
2018-Feb-17 04:01N 34°44' W 076°41'3 6.1
2018-Feb-17 03:31N 34°47' W 076°41'2 4.9
2018-Feb-17 03:00N 34°49' W 076°41'2 4.4
2018-Feb-17 02:31N 34°52' W 076°41'2 4.0
2018-Feb-17 02:01N 34°54' W 076°41'2 4.6
2018-Feb-17 01:30N 34°55' W 076°39'3 2.4
2018-Feb-17 00:23N 34°58' W 076°41'0 0.0
2018-Feb-16 09:40N 34°58' W 076°41'1 6.9
2018-Feb-16 09:30N 34°57' W 076°40'3 5.5
2018-Feb-16 09:00N 34°54' W 076°41'3 5.2
2018-Feb-16 08:31N 34°52' W 076°41'3 5.8
2018-Feb-16 08:01N 34°49' W 076°41'3 5.8
2018-Feb-16 07:30N 34°46' W 076°41'3 5.2
2018-Feb-16 07:00N 34°43' W 076°42'0 0.1
2018-Feb-16 06:30N 34°43' W 076°42'0 0.0
2018-Feb-16 06:00N 34°43' W 076°42'0 0.2
2018-Feb-16 05:30N 34°43' W 076°42'3 5.7
2018-Feb-16 05:01N 34°46' W 076°41'3 5.2
2018-Feb-16 04:31N 34°49' W 076°41'2 4.7
2018-Feb-16 04:00N 34°51' W 076°41'2 4.3
2018-Feb-16 03:29N 34°53' W 076°41'3 4.4
2018-Feb-16 02:55N 34°55' W 076°39'4 0.2
2018-Feb-15 04:08N 34°59' W 076°41'1 7.1
2018-Feb-15 03:59N 34°58' W 076°41'3 6.6
2018-Feb-15 03:30N 34°55' W 076°40'3 6.5
2018-Feb-15 03:01N 34°52' W 076°41'4 7.5
2018-Feb-15 02:31N 34°48' W 076°41'3 6.9
2018-Feb-15 02:01N 34°44' W 076°41'1 2.7
2018-Feb-15 01:31N 34°43' W 076°42'0 0.2
2018-Feb-15 01:00N 34°43' W 076°42'3 5.2
2018-Feb-15 00:31N 34°46' W 076°41'3 5.4
2018-Feb-15 00:01N 34°48' W 076°41'2 4.7
2018-Feb-14 23:31N 34°51' W 076°41'3 5.1
2018-Feb-14 23:00N 34°53' W 076°41'3 5.8
2018-Feb-14 22:30N 34°56' W 076°39'2 0.1
2018-Feb-14 02:20N 34°58' W 076°41'2 7.6
2018-Feb-14 02:00N 34°56' W 076°39'4 7.3
2018-Feb-14 01:31N 34°53' W 076°42'4 7.7
2018-Feb-14 01:00N 34°49' W 076°41'4 7.4
2018-Feb-14 00:30N 34°45' W 076°41'2 3.9
2018-Feb-14 00:01N 34°43' W 076°42'0 0.1
2018-Feb-13 23:31N 34°43' W 076°42'0 0.0
2018-Feb-13 23:00N 34°43' W 076°42'0 0.0
2018-Feb-13 22:31N 34°43' W 076°42'0 0.0
2018-Feb-13 22:00N 34°43' W 076°42'0 0.0
2018-Feb-13 21:31N 34°43' W 076°42'0 0.0
2018-Feb-13 21:01N 34°43' W 076°42'0 0.0
2018-Feb-13 20:31N 34°43' W 076°42'0 0.0
2018-Feb-13 20:01N 34°43' W 076°42'0 0.0
2018-Feb-13 19:31N 34°43' W 076°42'0 0.0
2018-Feb-13 19:00N 34°43' W 076°42'0 0.0
2018-Feb-13 18:31N 34°43' W 076°42'0 0.0
2018-Feb-13 18:01N 34°43' W 076°42'0 0.0
2018-Feb-13 17:31N 34°43' W 076°42'0 0.0
2018-Feb-13 17:01N 34°43' W 076°42'0 0.0
2018-Feb-13 16:31N 34°43' W 076°42'0 0.0
2018-Feb-13 16:01N 34°43' W 076°42'0 0.0
2018-Feb-13 15:31N 34°43' W 076°42'0 0.0
2018-Feb-13 15:01N 34°43' W 076°42'0 0.0
2018-Feb-13 14:31N 34°43' W 076°42'0 0.0
2018-Feb-13 14:01N 34°43' W 076°42'0 0.0
2018-Feb-13 13:31N 34°43' W 076°42'0 0.0
2018-Feb-13 13:01N 34°43' W 076°42'0 0.0
2018-Feb-13 12:30N 34°43' W 076°42'0 0.0
2018-Feb-13 12:01N 34°43' W 076°42'0 0.0
2018-Feb-13 11:31N 34°43' W 076°42'0 0.0
2018-Feb-13 11:00N 34°43' W 076°42'0 0.0
2018-Feb-13 10:30N 34°43' W 076°42'0 0.0
2018-Feb-13 10:00N 34°43' W 076°42'0 0.0
2018-Feb-13 09:31N 34°43' W 076°42'0 0.0
2018-Feb-13 09:00N 34°43' W 076°42'0 0.0
2018-Feb-13 08:31N 34°43' W 076°42'0 0.0
2018-Feb-13 08:00N 34°43' W 076°42'0 0.0
2018-Feb-13 07:31N 34°43' W 076°42'0 0.0
2018-Feb-13 07:01N 34°43' W 076°42'0 0.0
2018-Feb-13 06:31N 34°43' W 076°42'0 0.0
2018-Feb-13 06:01N 34°43' W 076°42'0 0.0
2018-Feb-13 05:30N 34°43' W 076°42'0 0.0
2018-Feb-13 05:01N 34°43' W 076°42'0 0.0
2018-Feb-13 04:31N 34°43' W 076°42'0 0.0
2018-Feb-13 04:01N 34°43' W 076°42'0 0.0
2018-Feb-13 03:31N 34°43' W 076°42'0 0.0
2018-Feb-13 03:00N 34°43' W 076°42'0 0.0
2018-Feb-13 02:31N 34°43' W 076°42'0 0.0
2018-Feb-13 02:00N 34°43' W 076°42'0 0.0
2018-Feb-13 01:30N 34°43' W 076°42'0 0.0
2018-Feb-13 01:00N 34°43' W 076°42'0 0.0
2018-Feb-13 00:31N 34°43' W 076°42'0 0.2
2018-Feb-13 00:01N 34°43' W 076°42'0 0.1
2018-Feb-12 23:30N 34°43' W 076°42'0 0.1
2018-Feb-12 23:01N 34°43' W 076°42'3 5.5
2018-Feb-12 22:30N 34°46' W 076°41'3 6.4
2018-Feb-12 22:01N 34°49' W 076°41'3 6.8
2018-Feb-12 21:31N 34°53' W 076°41'3 6.3
2018-Feb-12 21:00N 34°55' W 076°39'3 6.3
2018-Feb-12 20:30N 34°58' W 076°41'0 0.0
2018-Feb-11 23:35N 34°58' W 076°41'1 7.3
2018-Feb-11 23:27N 34°57' W 076°40'3 6.4
2018-Feb-11 23:00N 34°54' W 076°40'4 7.2
2018-Feb-11 22:30N 34°51' W 076°41'4 8.2
2018-Feb-11 22:00N 34°47' W 076°41'3 6.5
2018-Feb-11 21:30N 34°43' W 076°42'0 0.2
2018-Feb-11 21:01N 34°43' W 076°42'0 0.2
2018-Feb-11 20:31N 34°43' W 076°42'0 0.9
2018-Feb-11 20:01N 34°44' W 076°42'2 4.8
2018-Feb-11 19:31N 34°46' W 076°41'3 5.8
2018-Feb-11 19:00N 34°49' W 076°41'3 5.8
2018-Feb-11 18:31N 34°52' W 076°41'4 5.5
2018-Feb-11 17:51N 34°55' W 076°40'  

Dump ship's entire track history